Time;durP1;ratioP1;P1;durP2;ratioP2;P2;SDS_P1;SDS_P2;PMS_P1;PMS_P2;Temp;Humidity;BMP_temperature;BMP_pressure;BME280_temperature;BME280_humidity;BME280_pressure;Samples;Min_cycle;Max_cycle;Signal;HPM_P1;HPM_P2
2021/04/23 00:00:54;;;;;;;7.90;6.33;;;;;;;10.63;62.41;101253.84;1700425;84;27780;-62
2021/04/23 00:03:42;;;;;;;16.52;7.12;;;;;;;10.70;62.06;101259.59;1700513;84;26189;-62
2021/04/23 00:06:30;;;;;;;12.00;6.90;;;;;;;10.75;62.08;101265.44;1700299;84;25679;-62
2021/04/23 00:09:12;;;;;;;9.40;5.97;;;;;;;10.80;62.52;101265.94;1702685;83;25676;-62
2021/04/23 00:11:51;;;;;;;11.68;6.42;;;;;;;10.84;61.94;101267.37;1717123;82;25733;-63
2021/04/23 00:14:24;;;;;;;14.15;7.22;;;;;;;10.88;61.60;101270.67;1736293;82;28614;-63
2021/04/23 00:16:53;;;;;;;;;;;;;;;10.93;61.45;101273.36;1738434;82;25789;-63
2021/04/23 00:19:25;;;;;;;41.08;15.60;;;;;;;11.00;61.20;101271.02;1736324;82;25782;-63
2021/04/23 00:21:55;;;;;;;21.90;9.05;;;;;;;11.03;61.14;101272.59;1736188;82;26467;-62
2021/04/23 00:24:24;;;;;;;7.95;6.12;;;;;;;11.08;60.98;101264.50;1736371;82;25755;-62
2021/04/23 00:26:53;;;;;;;13.03;6.00;;;;;;;11.10;61.04;101268.41;1735541;82;28460;-62
2021/04/23 00:29:22;;;;;;;12.75;6.70;;;;;;;11.04;60.84;101268.92;1703615;83;25732;-62
2021/04/23 00:31:52;;;;;;;12.98;6.62;;;;;;;11.03;60.81;101272.59;1703591;84;25773;-63
2021/04/23 00:34:20;;;;;;;10.45;6.72;;;;;;;11.01;60.90;101275.42;1703420;84;25744;-62
2021/04/23 00:36:48;;;;;;;9.40;5.92;;;;;;;10.99;60.88;101284.11;1703591;83;25525;-60
2021/04/23 00:39:16;;;;;;;11.43;6.47;;;;;;;10.81;60.97;101285.11;1703543;84;27617;-62
2021/04/23 00:41:44;;;;;;;8.23;5.60;;;;;;;10.69;60.91;101282.09;1703433;84;25680;-62
2021/04/23 00:44:12;;;;;;;8.13;5.45;;;;;;;10.55;61.14;101280.02;1703486;83;25749;-62
2021/04/23 00:46:40;;;;;;;8.78;5.47;;;;;;;10.46;60.92;101282.09;1702107;83;25755;-62
2021/04/23 00:49:08;;;;;;;9.85;6.10;;;;;;;10.44;61.24;101288.11;1700578;84;26066;-61
2021/04/23 00:51:44;;;;;;;10.03;6.28;;;;;;;10.42;61.06;101290.06;1693064;84;27592;-63
2021/04/23 00:54:15;;;;;;;12.73;6.65;;;;;;;10.42;61.12;101283.34;1687135;85;25736;-62
2021/04/23 00:56:44;;;;;;;9.10;6.30;;;;;;;10.41;61.07;101289.70;1687184;84;25744;-62
2021/04/23 00:59:13;;;;;;;8.68;6.35;;;;;;;10.40;60.92;101288.82;1687336;85;26402;-63
2021/04/23 01:01:55;;;;;;;11.85;6.70;;;;;;;10.38;60.67;101292.62;1687251;84;25731;-63
2021/04/23 01:04:30;;;;;;;9.50;6.75;;;;;;;10.31;60.88;101299.80;1675853;84;27563;-63
2021/04/23 01:06:58;;;;;;;;;;;;;;;10.26;61.15;101305.17;1689676;85;25692;-63
2021/04/23 01:09:31;;;;;;;11.65;5.75;;;;;;;10.18;61.28;101305.30;1687250;85;25691;-62
2021/04/23 01:12:04;;;;;;;10.90;5.83;;;;;;;10.12;61.24;101303.57;1709155;83;26237;-63
2021/04/23 01:14:33;;;;;;;10.20;5.72;;;;;;;10.05;61.57;101309.06;1718920;82;26455;-62
2021/04/23 01:17:01;;;;;;;10.03;6.92;;;;;;;9.97;61.83;101317.24;1689737;84;27574;-62
2021/04/23 01:19:29;;;;;;;11.43;6.75;;;;;;;9.91;62.00;101313.66;1689769;84;25663;-63
2021/04/23 01:21:57;;;;;;;10.55;6.80;;;;;;;9.89;62.11;101319.67;1689639;83;25725;-62
2021/04/23 01:24:26;;;;;;;8.25;5.85;;;;;;;9.90;62.31;101320.52;1697035;84;26421;-62
2021/04/23 01:26:56;;;;;;;9.18;6.00;;;;;;;9.91;62.77;101318.20;1696900;84;26580;-63
2021/04/23 01:29:27;;;;;;;11.20;6.12;;;;;;;9.91;62.74;101315.01;1694790;84;27544;-62
2021/04/23 01:31:58;;;;;;;10.72;5.45;;;;;;;9.93;62.94;101313.56;1690204;83;26226;-62
2021/04/23 01:34:34;;;;;;;12.18;6.42;;;;;;;9.94;63.12;101308.06;1694640;84;25711;-61
2021/04/23 01:37:05;;;;;;;11.33;6.05;;;;;;;9.96;63.27;101314.19;1694755;84;25752;-62
2021/04/23 01:39:38;;;;;;;13.48;5.70;;;;;;;9.95;63.51;101311.63;1694836;83;25756;-61
2021/04/23 01:42:09;;;;;;;10.23;5.87;;;;;;;9.96;63.35;101313.31;1694703;83;27545;-61
2021/04/23 01:44:38;;;;;;;10.28;5.78;;;;;;;9.98;63.48;101308.67;1694573;83;25554;-62
2021/04/23 01:47:08;;;;;;;9.50;5.72;;;;;;;9.98;63.31;101325.68;1694404;83;25675;-62
2021/04/23 01:49:37;;;;;;;14.07;5.33;;;;;;;9.99;63.44;101319.33;1694421;84;26436;-62
2021/04/23 01:52:14;;;;;;;6.70;4.80;;;;;;;10.00;63.29;101319.67;1695807;83;25707;-62
2021/04/23 01:54:42;;;;;;;14.98;5.97;;;;;;;10.01;63.42;101318.70;1697019;83;27635;-62
2021/04/23 01:57:10;;;;;;;12.55;5.97;;;;;;;10.02;63.96;101337.05;1689594;84;25779;-62
2021/04/23 01:59:42;;;;;;;17.10;5.37;;;;;;;9.99;63.66;101339.96;1688120;84;25531;-62
2021/04/23 02:02:11;;;;;;;9.23;5.95;;;;;;;9.97;63.54;101341.43;1649186;86;25700;-62
2021/04/23 02:04:41;;;;;;;9.85;6.03;;;;;;;9.97;63.72;101345.46;1649352;85;25814;-62
2021/04/23 02:07:10;;;;;;;14.15;6.35;;;;;;;9.93;63.29;101342.63;1685341;85;28385;-62
2021/04/23 02:09:38;;;;;;;9.73;6.35;;;;;;;9.94;63.09;101342.16;1688042;84;26135;-62
2021/04/23 02:12:09;;;;;;;11.48;6.70;;;;;;;9.91;63.15;101337.01;1675094;85;25884;-62
2021/04/23 02:14:37;;;;;;;14.45;7.15;;;;;;;9.89;62.96;101334.92;1666116;85;26437;-63
2021/04/23 02:17:08;;;;;;;12.68;7.12;;;;;;;9.86;63.07;101344.08;1707986;84;26342;-61
2021/04/23 02:19:37;;;;;;;14.63;6.28;;;;;;;9.81;63.04;101344.93;1702488;84;27546;-62
2021/04/23 02:22:05;;;;;;;9.65;6.72;;;;;;;9.78;63.13;101353.22;1694841;84;26221;-62
2021/04/23 02:24:33;;;;;;;11.28;7.03;;;;;;;9.73;63.19;101363.47;1695002;84;25674;-62
2021/04/23 02:27:01;;;;;;;12.95;7.30;;;;;;;9.75;63.46;101362.84;1699283;84;26484;-61
2021/04/23 02:29:30;;;;;;;16.57;8.13;;;;;;;9.77;64.04;101368.96;1665084;85;26123;-61
2021/04/23 02:31:58;;;;;;;13.08;8.03;;;;;;;9.79;63.58;101371.05;1665166;85;28268;-62
2021/04/23 02:34:26;;;;;;;13.68;7.65;;;;;;;9.82;63.53;101373.02;1664905;86;25701;-61
2021/04/23 02:36:54;;;;;;;17.50;7.37;;;;;;;9.87;63.55;101369.48;1665149;85;25653;-61
2021/04/23 02:39:22;;;;;;;13.62;7.17;;;;;;;9.91;63.31;101375.48;1665146;86;25540;-61
2021/04/23 02:41:54;;;;;;;13.83;8.30;;;;;;;9.95;63.27;101385.53;1665079;85;25733;-61
2021/04/23 02:44:25;;;;;;;13.58;7.12;;;;;;;9.94;63.69;101384.66;1665084;84;27621;-61
2021/04/23 02:46:55;;;;;;;14.28;8.63;;;;;;;9.92;63.60;101379.87;1675968;85;25769;-61
2021/04/23 02:49:24;;;;;;;20.10;7.75;;;;;;;9.83;64.72;101387.30;1688139;85;25719;-61
2021/04/23 02:51:54;;;;;;;17.10;7.62;;;;;;;9.68;65.20;101386.16;1684310;83;25729;-61
2021/04/23 02:54:23;;;;;;;19.17;7.65;;;;;;;9.62;65.26;101390.66;1707725;84;25691;-61
2021/04/23 02:56:51;;;;;;;18.20;7.67;;;;;;;9.68;65.65;101383.97;1705887;82;27600;-61
2021/04/23 02:59:19;;;;;;;11.15;7.22;;;;;;;9.77;65.89;101385.92;1695918;84;25704;-62
2021/04/23 03:01:51;;;;;;;9.60;6.62;;;;;;;9.86;65.33;101381.70;1659564;85;25830;-62
2021/04/23 03:04:22;;;;;;;10.35;6.60;;;;;;;9.96;65.27;101381.38;1702340;84;25672;-63
2021/04/23 03:06:51;;;;;;;12.10;6.92;;;;;;;10.02;65.55;101380.05;1695675;83;25541;-61
2021/04/23 03:09:19;;;;;;;7.33;6.17;;;;;;;10.05;65.59;101377.11;1656046;86;28451;-62
2021/04/23 03:11:48;;;;;;;11.10;7.45;;;;;;;10.12;65.60;101375.69;1692770;84;25526;-63
2021/04/23 03:14:17;;;;;;;8.25;6.33;;;;;;;10.21;65.48;101375.45;1699468;82;25870;-62
2021/04/23 03:16:45;;;;;;;9.43;6.78;;;;;;;10.23;65.68;101384.26;1656205;86;25682;-61
2021/04/23 03:19:17;;;;;;;8.15;5.90;;;;;;;10.18;65.86;101382.39;1700317;83;25725;-61
2021/04/23 03:21:46;;;;;;;10.30;6.25;;;;;;;10.08;66.13;101388.14;1655936;86;27610;-62
2021/04/23 03:24:17;;;;;;;9.48;7.35;;;;;;;9.97;66.16;101397.88;1687244;84;25696;-62
2021/04/23 03:26:46;;;;;;;9.80;7.22;;;;;;;9.89;66.53;101400.29;1659515;85;25772;-61
2021/04/23 03:29:17;;;;;;;14.70;7.25;;;;;;;9.82;67.30;101411.11;1700380;84;25678;-62
2021/04/23 03:31:45;;;;;;;10.48;7.15;;;;;;;9.69;67.55;101405.34;1687447;83;26119;-62
2021/04/23 03:34:13;;;;;;;10.78;7.95;;;;;;;9.64;67.03;101406.64;1655997;86;27551;-62
2021/04/23 03:36:42;;;;;;;15.93;8.10;;;;;;;9.67;67.01;101403.73;1697016;82;25749;-63
2021/04/23 03:39:12;;;;;;;12.98;9.10;;;;;;;9.70;67.14;101416.92;1704113;83;25783;-62
2021/04/23 03:41:42;;;;;;;16.73;10.18;;;;;;;9.60;67.77;101415.42;1707721;82;25804;-62
2021/04/23 03:44:11;;;;;;;15.90;9.38;;;;;;;9.50;68.71;101417.07;1694844;82;25742;-63
2021/04/23 03:46:39;;;;;;;16.70;10.28;;;;;;;9.46;68.81;101413.76;1699729;82;28751;-63
2021/04/23 03:49:07;;;;;;;14.78;10.28;;;;;;;9.45;68.65;101421.44;1687307;83;25716;-63
2021/04/23 03:51:35;;;;;;;16.10;10.75;;;;;;;9.49;68.60;101422.06;1690306;83;25570;-61
2021/04/23 03:54:05;;;;;;;33.85;20.02;;;;;;;9.55;68.84;101419.80;1662770;85;25693;-61
2021/04/23 03:56:34;;;;;;;16.15;11.22;;;;;;;9.60;68.76;101422.61;1692428;84;25913;-58
2021/04/23 03:59:03;;;;;;;20.55;11.20;;;;;;;9.70;68.65;101416.92;1683543;82;26822;-62
2021/04/23 04:01:34;;;;;;;22.62;11.73;;;;;;;9.79;68.16;101420.77;1705948;82;25783;-62
2021/04/23 04:04:03;;;;;;;18.30;11.88;;;;;;;9.83;67.88;101412.83;1707443;82;25668;-65
2021/04/23 04:06:31;;;;;;;13.65;10.65;;;;;;;9.93;67.92;101421.07;1705092;83;25632;-63
2021/04/23 04:08:59;;;;;;;22.25;11.00;;;;;;;9.99;67.39;101430.00;1706731;84;25656;-63
2021/04/23 04:11:27;;;;;;;13.85;10.63;;;;;;;10.01;67.22;101434.78;1702584;82;27401;-64
2021/04/23 04:13:55;;;;;;;15.93;11.33;;;;;;;10.05;67.29;101439.44;1687170;84;25928;-63
2021/04/23 04:16:22;;;;;;;29.77;20.37;;;;;;;9.99;66.71;101442.09;1687453;85;25749;-63
2021/04/23 04:18:50;;;;;;;17.02;12.23;;;;;;;10.02;66.98;101447.25;1687406;83;25642;-63
2021/04/23 04:21:18;;;;;;;19.05;14.00;;;;;;;10.02;66.40;101436.50;1665309;83;26077;-64
2021/04/23 04:23:47;;;;;;;20.35;13.65;;;;;;;9.95;66.44;101446.85;1687313;85;28281;-64
2021/04/23 04:26:15;;;;;;;25.23;14.93;;;;;;;9.82;66.53;101441.55;1687201;84;25524;-64
2021/04/23 04:28:44;;;;;;;18.40;11.60;;;;;;;9.77;66.44;101440.17;1687359;85;25801;-63
2021/04/23 04:31:12;;;;;;;16.37;10.60;;;;;;;9.78;66.69;101448.11;1687340;83;25753;-63
2021/04/23 04:33:43;;;;;;;17.75;10.50;;;;;;;9.76;66.57;101450.07;1685707;83;25799;-63
2021/04/23 04:36:12;;;;;;;15.53;9.60;;;;;;;9.68;66.56;101442.57;1703701;84;27540;-63
2021/04/23 04:38:40;;;;;;;16.17;10.90;;;;;;;9.61;66.63;101433.72;1697917;82;25923;-62
2021/04/23 04:41:08;;;;;;;15.63;9.93;;;;;;;9.63;66.86;101440.72;1687180;83;25650;-62
2021/04/23 04:43:36;;;;;;;16.30;9.65;;;;;;;9.73;66.91;101445.41;1656046;85;26413;-62
2021/04/23 04:46:04;;;;;;;11.75;9.35;;;;;;;9.76;66.66;101445.16;1686920;83;25697;-62
2021/04/23 04:48:33;;;;;;;17.60;9.03;;;;;;;9.82;66.50;101446.92;1687388;84;27343;-62
2021/04/23 04:51:02;;;;;;;14.85;8.83;;;;;;;9.91;66.44;101441.32;1688419;84;25857;-63
2021/04/23 04:53:31;;;;;;;12.82;9.63;;;;;;;10.07;66.42;101443.72;1668153;85;25692;-62
2021/04/23 04:56:00;;;;;;;11.18;8.63;;;;;;;10.16;65.96;101440.33;1707616;83;25543;-62
2021/04/23 04:58:32;;;;;;;13.10;8.68;;;;;;;10.25;65.58;101441.94;1673113;85;25446;-61
2021/04/23 05:01:04;;;;;;;24.35;9.48;;;;;;;10.21;65.15;101441.33;1707564;84;27556;-61
2021/04/23 05:03:33;;;;;;;13.35;9.00;;;;;;;10.24;65.06;101442.91;1673206;84;26103;-62
2021/04/23 05:06:00;;;;;;;16.80;10.13;;;;;;;10.36;65.14;101439.77;1715683;83;26372;-62
2021/04/23 05:08:28;;;;;;;19.07;9.50;;;;;;;10.45;64.86;101436.39;1725604;82;25706;-62
2021/04/23 05:10:57;;;;;;;12.73;9.50;;;;;;;10.58;64.37;101434.98;1723519;83;25687;-62
2021/04/23 05:13:25;;;;;;;12.65;8.90;;;;;;;10.70;63.92;101438.03;1707824;83;26708;-62
2021/04/23 05:15:53;;;;;;;17.55;9.88;;;;;;;10.77;63.66;101440.60;1699980;84;25730;-62
2021/04/23 05:18:21;;;;;;;15.23;8.25;;;;;;;10.67;62.75;101441.45;1688307;84;25694;-61
2021/04/23 05:20:49;;;;;;;14.10;8.88;;;;;;;10.64;62.78;101442.06;1657368;86;26511;-61
2021/04/23 05:23:17;;;;;;;11.95;8.58;;;;;;;10.68;62.61;101440.48;1693554;84;26132;-63
2021/04/23 05:25:46;;;;;;;11.00;8.68;;;;;;;10.69;62.29;101444.39;1708250;82;27554;-64
2021/04/23 05:28:14;;;;;;;14.95;8.03;;;;;;;10.72;62.12;101447.33;1721350;82;26095;-62
2021/04/23 05:30:42;;;;;;;14.78;8.55;;;;;;;10.74;61.86;101446.72;1673265;85;25764;-61
2021/04/23 05:33:10;;;;;;;13.50;9.18;;;;;;;10.75;61.86;101441.23;1708595;83;25669;-61
2021/04/23 05:35:40;;;;;;;17.23;9.10;;;;;;;10.79;61.63;101450.77;1679616;85;25582;-62
2021/04/23 05:38:09;;;;;;;11.20;7.70;;;;;;;10.75;61.59;101449.31;1696369;82;28483;-62
2021/04/23 05:40:45;;;;;;;10.45;7.50;;;;;;;10.76;61.62;101455.03;1707514;84;26137;-62
2021/04/23 05:43:15;;;;;;;17.57;8.05;;;;;;;10.82;61.81;101451.51;1707668;83;25688;-60
2021/04/23 05:45:45;;;;;;;11.50;7.65;;;;;;;10.87;61.44;101450.64;1707354;82;25831;-61
2021/04/23 05:48:16;;;;;;;12.63;7.25;;;;;;;10.88;61.47;101447.85;1706732;84;25734;-61
2021/04/23 05:50:45;;;;;;;10.88;7.67;;;;;;;10.93;60.92;101447.48;1706651;82;28444;-62
2021/04/23 05:53:15;;;;;;;16.50;9.33;;;;;;;10.95;60.76;101443.69;1708138;83;25728;-62
2021/04/23 05:55:44;;;;;;;12.55;7.22;;;;;;;10.97;60.62;101439.52;1708495;83;25703;-64
2021/04/23 05:58:12;;;;;;;9.63;7.90;;;;;;;11.03;60.77;101440.86;1710314;82;26529;-64
2021/04/23 06:00:43;;;;;;;11.45;8.03;;;;;;;11.16;60.75;101450.16;1713354;82;26155;-64
2021/04/23 06:03:13;;;;;;;10.05;7.87;;;;;;;11.26;60.50;101453.33;1707999;83;26856;-64
2021/04/23 06:05:41;;;;;;;9.65;7.10;;;;;;;11.30;60.26;101457.97;1707622;83;26039;-61
2021/04/23 06:08:12;;;;;;;11.85;7.75;;;;;;;11.31;59.82;101456.16;1702417;84;25481;-61
2021/04/23 06:10:44;;;;;;;13.68;7.72;;;;;;;11.26;59.77;101453.83;1702113;83;25748;-60
2021/04/23 06:13:13;;;;;;;10.53;7.80;;;;;;;11.33;59.55;101459.59;1703167;82;25733;-61
2021/04/23 06:15:42;;;;;;;11.03;8.13;;;;;;;11.39;59.28;101444.27;1673824;85;27538;-61
2021/04/23 06:18:11;;;;;;;9.28;7.22;;;;;;;11.46;58.93;101448.16;1674546;85;26143;-63
2021/04/23 06:20:42;;;;;;;8.30;6.85;;;;;;;11.53;58.63;101441.78;1645598;85;25496;-62
2021/04/23 06:23:13;;;;;;;12.28;6.92;;;;;;;11.56;58.71;101444.23;1673687;83;25779;-63
2021/04/23 06:25:41;;;;;;;9.55;7.05;;;;;;;11.64;58.37;101447.63;1674537;85;25736;-62
2021/04/23 06:28:09;;;;;;;14.55;6.53;;;;;;;11.69;58.34;101449.47;1684892;84;27635;-63
2021/04/23 06:30:39;;;;;;;13.28;7.20;;;;;;;11.77;58.12;101456.43;1673043;84;25706;-64
2021/04/23 06:33:17;;;;;;;10.68;7.17;;;;;;;11.82;57.85;101459.58;1726622;82;25819;-62
2021/04/23 06:35:44;;;;;;;21.02;6.97;;;;;;;11.82;57.45;101463.63;1738227;82;25656;-62
2021/04/23 06:38:13;;;;;;;10.70;7.40;;;;;;;11.76;57.64;101466.84;1737942;82;26101;-62
2021/04/23 06:40:45;;;;;;;11.40;7.70;;;;;;;11.74;57.61;101470.15;1733130;81;26854;-63
2021/04/23 06:43:13;;;;;;;12.30;8.35;;;;;;;11.69;57.75;101466.48;1737956;82;25820;-63
2021/04/23 06:45:44;;;;;;;12.30;7.85;;;;;;;11.64;58.02;101455.72;1712429;82;25714;-62
2021/04/23 06:48:14;;;;;;;12.63;8.00;;;;;;;11.59;58.07;101465.05;1736208;82;26431;-60
2021/04/23 06:50:43;;;;;;;9.63;6.75;;;;;;;11.57;57.87;101471.05;1721529;82;25778;-62
2021/04/23 06:53:12;;;;;;;13.48;8.53;;;;;;;11.53;57.84;101476.81;1726578;82;27524;-61
2021/04/23 06:55:43;;;;;;;15.25;8.30;;;;;;;11.43;57.75;101474.00;1714520;83;25682;-61
2021/04/23 06:58:10;;;;;;;14.68;7.42;;;;;;;11.40;58.05;101472.41;1703010;82;25817;-61
2021/04/23 07:00:42;;;;;;;11.80;7.55;;;;;;;11.30;58.18;101474.64;1694550;84;25711;-61
2021/04/23 07:03:11;;;;;;;11.15;8.53;;;;;;;11.28;58.57;101474.27;1662687;84;25720;-61
2021/04/23 07:05:43;;;;;;;11.83;8.80;;;;;;;11.16;58.53;101473.05;1670671;84;27739;-62
2021/04/23 07:08:11;;;;;;;12.65;8.33;;;;;;;11.14;58.55;101475.88;1689015;83;25699;-62
2021/04/23 07:10:41;;;;;;;16.82;8.00;;;;;;;11.10;58.73;101468.53;1689052;83;25847;-63
2021/04/23 07:13:10;;;;;;;13.43;7.67;;;;;;;11.07;58.82;101473.31;1692087;82;26537;-62
2021/04/23 07:15:39;;;;;;;11.38;7.65;;;;;;;11.08;58.82;101466.92;1699208;83;26223;-62
2021/04/23 07:18:07;;;;;;;12.35;7.45;;;;;;;11.15;58.89;101473.55;1695119;83;28503;-62
2021/04/23 07:20:38;;;;;;;12.33;7.85;;;;;;;11.24;58.66;101475.52;1686699;84;25753;-61
2021/04/23 07:23:08;;;;;;;12.40;7.87;;;;;;;11.23;58.60;101478.30;1689717;84;25707;-61
2021/04/23 07:25:37;;;;;;;11.50;8.45;;;;;;;11.27;58.34;101474.41;1656862;85;25695;-63
2021/04/23 07:28:06;;;;;;;12.47;7.67;;;;;;;11.34;58.09;101471.57;1695798;84;26097;-62
2021/04/23 07:30:36;;;;;;;14.13;7.78;;;;;;;11.36;58.13;101471.44;1690362;84;27529;-62
2021/04/23 07:33:09;;;;;;;14.40;8.63;;;;;;;11.36;58.38;101476.83;1690096;84;25713;-61
2021/04/23 07:35:37;;;;;;;13.15;8.15;;;;;;;11.37;57.82;101474.03;1690307;84;25624;-61
2021/04/23 07:38:05;;;;;;;12.70;8.45;;;;;;;11.34;57.84;101473.42;1690312;84;25676;-62
2021/04/23 07:40:34;;;;;;;13.18;8.05;;;;;;;11.27;57.76;101475.75;1692767;83;26188;-61
2021/04/23 07:43:03;;;;;;;10.88;7.05;;;;;;;11.19;58.09;101480.89;1690266;83;27531;-62
2021/04/23 07:45:41;;;;;;;12.35;6.55;;;;;;;11.10;59.02;101498.63;1674945;85;25527;-64
2021/04/23 07:48:13;;;;;;;11.85;6.67;;;;;;;10.89;59.70;101506.56;1695497;83;25715;-65
2021/04/23 07:50:48;;;;;;;11.33;6.25;;;;;;;10.65;59.86;101500.28;1719290;82;25801;-63
2021/04/23 07:53:16;;;;;;;11.33;6.67;;;;;;;10.49;60.75;101514.05;1693366;83;26074;-63
2021/04/23 07:55:44;;;;;;;11.18;6.30;;;;;;;10.44;60.79;101516.75;1668435;85;27557;-62
2021/04/23 07:58:13;;;;;;;10.45;5.90;;;;;;;10.45;61.13;101519.31;1668254;85;25763;-62
2021/04/23 08:00:41;;;;;;;11.68;5.83;;;;;;;10.39;61.40;101523.83;1669067;84;25839;-62
2021/04/23 08:03:09;;;;;;;13.05;5.72;;;;;;;10.11;61.42;101523.65;1673301;84;26494;-62
2021/04/23 08:05:38;;;;;;;15.58;6.40;;;;;;;9.91;62.52;101527.33;1667963;85;26577;-62
2021/04/23 08:08:07;;;;;;;7.53;6.08;;;;;;;9.70;63.21;101537.83;1638070;86;27559;-62
2021/04/23 08:10:36;;;;;;;14.38;7.08;;;;;;;9.49;63.48;101533.06;1666713;85;25875;-62
2021/04/23 08:13:05;;;;;;;11.38;5.87;;;;;;;9.24;64.36;101546.03;1642693;86;25745;-62
2021/04/23 08:15:36;;;;;;;14.93;5.67;;;;;;;9.10;64.84;101544.81;1642708;87;26476;-63
2021/04/23 08:18:04;;;;;;;10.28;4.80;;;;;;;9.14;64.67;101548.52;1642691;86;25735;-62
2021/04/23 08:20:35;;;;;;;13.30;8.50;;;;;;;9.04;65.03;101546.94;1642542;87;27676;-61
2021/04/23 08:23:04;;;;;;;9.25;5.50;;;;;;;8.96;65.24;101564.55;1642548;86;25442;-62
2021/04/23 08:25:33;;;;;;;12.73;4.22;;;;;;;8.85;65.10;101561.25;1642339;87;25821;-63
2021/04/23 08:28:01;;;;;;;6.62;3.87;;;;;;;8.86;64.95;101567.88;1642543;87;25695;-61
2021/04/23 08:30:29;;;;;;;14.47;4.37;;;;;;;8.92;65.14;101571.93;1642671;87;26172;-62
2021/04/23 08:32:58;;;;;;;9.53;4.95;;;;;;;8.96;65.01;101581.50;1642496;87;27550;-64
2021/04/23 08:35:28;;;;;;;10.25;4.50;;;;;;;8.92;65.96;101580.86;1642392;86;25712;-62
2021/04/23 08:37:56;;;;;;;7.10;4.62;;;;;;;8.74;66.02;101594.19;1648062;85;25693;-61
2021/04/23 08:40:24;;;;;;;11.48;4.97;;;;;;;8.47;67.25;101595.08;1669884;85;25735;-62
2021/04/23 08:42:53;;;;;;;16.40;5.70;;;;;;;8.37;67.42;101600.17;1641319;85;25682;-61
2021/04/23 08:45:22;;;;;;;9.58;5.65;;;;;;;8.21;68.31;101594.95;1641137;87;28508;-62
2021/04/23 08:47:52;;;;;;;15.40;6.58;;;;;;;8.20;68.82;101593.72;1663896;84;25844;-62
2021/04/23 08:50:25;;;;;;;13.13;5.83;;;;;;;8.21;70.00;101574.84;1667035;85;25803;-61
2021/04/23 08:52:54;;;;;;;13.25;6.90;;;;;;;8.19;69.62;101584.80;1666988;86;25649;-61
2021/04/23 08:55:25;;;;;;;8.00;5.53;;;;;;;8.18;69.26;101593.80;1666944;84;25559;-62
2021/04/23 08:57:55;;;;;;;10.00;5.83;;;;;;;8.19;69.43;101593.34;1662436;86;27627;-62
2021/04/23 09:00:25;;;;;;;9.73;5.92;;;;;;;8.10;70.17;101599.68;1669262;84;25695;-62
2021/04/23 09:02:53;;;;;;;10.95;5.62;;;;;;;8.02;69.86;101595.77;1669851;84;25726;-63
2021/04/23 09:05:21;;;;;;;12.23;5.53;;;;;;;8.12;71.77;101595.06;1669859;84;26427;-62
2021/04/23 09:10:43;;;;;;;9.80;6.10;;;;;;;8.21;71.03;101577.99;1843681;76;25383;-60
2021/04/23 09:13:16;;;;;;;17.70;5.87;;;;;;;8.16;70.33;101591.70;1731501;80;25664;-62
2021/04/23 09:15:46;;;;;;;10.13;5.28;;;;;;;8.19;70.43;101600.89;1791571;77;27318;-61
2021/04/23 09:18:25;;;;;;;10.20;5.00;;;;;;;8.08;70.31;101604.27;1848018;76;25763;-61
2021/04/23 09:21:04;;;;;;;11.43;5.17;;;;;;;8.03;70.39;101608.20;1768172;80;25549;-61
2021/04/23 09:23:32;;;;;;;9.53;5.25;;;;;;;7.91;70.62;101607.19;1803015;79;25459;-61
2021/04/23 09:26:00;;;;;;;10.88;5.60;;;;;;;7.92;71.05;101608.91;1768270;81;26085;-62
2021/04/23 09:28:42;;;;;;;13.32;6.25;;;;;;;7.92;70.98;101623.15;1803045;79;27520;-63
2021/04/23 09:31:27;;;;;;;12.33;5.90;;;;;;;7.94;70.78;101624.38;1802931;79;25691;-62
2021/04/23 09:34:02;;;;;;;12.75;5.92;;;;;;;8.01;70.81;101623.05;1802985;79;25698;-62
2021/04/23 09:36:46;;;;;;;7.83;5.83;;;;;;;8.05;70.45;101618.36;1768328;80;25535;-63
2021/04/23 09:39:24;;;;;;;9.30;5.58;;;;;;;8.02;71.01;101623.91;1802934;79;25500;-63
2021/04/23 09:42:02;;;;;;;11.50;5.25;;;;;;;7.99;72.11;101630.33;1781620;79;27510;-64
2021/04/23 09:44:44;;;;;;;12.40;5.58;;;;;;;7.99;71.99;101632.51;1731072;81;25605;-63
2021/04/23 09:47:22;;;;;;;6.17;5.08;;;;;;;8.03;71.60;101624.28;1761086;79;26112;-63
2021/04/23 09:49:59;;;;;;;10.28;4.42;;;;;;;8.09;71.67;101624.76;1760493;80;25762;-62
2021/04/23 09:52:29;;;;;;;13.85;5.08;;;;;;;8.17;72.08;101628.27;1762063;79;25963;-62
2021/04/23 09:55:00;;;;;;;11.05;5.47;;;;;;;8.15;71.01;101627.53;1762766;80;28379;-62
2021/04/23 09:57:34;;;;;;;9.63;5.12;;;;;;;8.13;70.60;101631.62;1762444;80;25619;-61
2021/04/23 10:00:11;;;;;;;8.00;4.65;;;;;;;8.19;70.93;101634.88;1740791;79;25820;-61
2021/04/23 10:02:39;;;;;;;8.68;5.70;;;;;;;8.23;70.92;101628.34;1731701;81;25947;-61
2021/04/23 10:05:09;;;;;;;9.18;5.17;;;;;;;8.23;70.57;101631.03;1734397;80;25711;-62
2021/04/23 10:07:39;;;;;;;9.18;5.05;;;;;;;8.26;70.82;101632.18;1762712;81;28503;-62
2021/04/23 10:10:11;;;;;;;7.90;4.95;;;;;;;8.30;70.78;101628.32;1759018;80;25947;-62
2021/04/23 10:12:53;;;;;;;9.73;5.15;;;;;;;8.36;70.71;101627.94;1763255;79;25601;-60
2021/04/23 10:15:31;;;;;;;9.70;5.90;;;;;;;8.45;70.27;101618.41;1764306;81;26133;-62
2021/04/23 10:18:05;;;;;;;12.90;6.37;;;;;;;8.51;69.98;101618.06;1764492;81;26128;-62
2021/04/23 10:20:42;;;;;;;10.23;5.92;;;;;;;8.59;69.48;101624.23;1764103;81;27599;-62
2021/04/23 10:23:17;;;;;;;8.08;5.17;;;;;;;8.64;69.50;101625.27;1763721;81;25786;-61
2021/04/23 10:25:46;;;;;;;10.13;7.12;;;;;;;8.61;68.72;101631.70;1761471;79;25655;-61
2021/04/23 10:28:23;;;;;;;7.40;4.90;;;;;;;8.54;68.69;101633.08;1737668;81;25505;-61
2021/04/23 10:30:56;;;;;;;6.28;5.03;;;;;;;8.60;69.29;101640.71;1751833;81;26149;-61
2021/04/23 10:33:28;;;;;;;11.63;4.75;;;;;;;8.58;68.69;101635.92;1746515;81;27539;-61
2021/04/23 10:35:57;;;;;;;7.67;4.58;;;;;;;8.52;68.54;101647.06;1751789;81;25701;-62
2021/04/23 10:38:29;;;;;;;6.60;4.05;;;;;;;8.47;68.60;101651.39;1750344;81;25617;-61
2021/04/23 10:41:01;;;;;;;7.15;3.98;;;;;;;8.45;68.69;101657.30;1751914;81;25739;-61
2021/04/23 10:43:34;;;;;;;5.92;3.98;;;;;;;8.44;68.70;101656.45;1754580;81;26596;-61
2021/04/23 10:46:13;;;;;;;6.50;4.28;;;;;;;8.46;69.20;101668.41;1751088;81;27672;-61
2021/04/23 10:48:44;;;;;;;8.33;3.52;;;;;;;8.48;69.12;101662.50;1733443;81;25447;-61
2021/04/23 10:51:25;;;;;;;6.70;3.52;;;;;;;8.54;69.35;101659.41;1733451;82;25733;-60
2021/04/23 10:54:08;;;;;;;6.35;3.70;;;;;;;8.54;69.36;101658.56;1733392;82;25694;-60
2021/04/23 10:56:39;;;;;;;5.83;3.72;;;;;;;8.53;69.18;101660.36;1733224;82;25769;-60
2021/04/23 10:59:34;;;;;;;5.55;3.20;;;;;;;8.66;69.35;101659.07;1752939;81;27583;-62
2021/04/23 11:02:17;;;;;;;5.75;3.15;;;;;;;8.79;69.35;101656.92;1733395;81;25767;-60
2021/04/23 11:04:59;;;;;;;6.72;3.45;;;;;;;8.81;68.90;101663.05;1716847;81;25813;-61
2021/04/23 11:07:34;;;;;;;6.78;3.62;;;;;;;8.88;68.56;101661.17;1834422;76;25655;-61
2021/04/23 11:10:05;;;;;;;8.03;3.77;;;;;;;8.86;68.85;101664.47;1801464;79;25672;-60
2021/04/23 11:12:34;;;;;;;8.20;4.62;;;;;;;8.89;68.61;101661.55;1805137;77;27499;-62
2021/04/23 11:15:16;;;;;;;6.03;4.85;;;;;;;8.93;68.79;101660.41;1804213;79;26164;-62
2021/04/23 11:17:44;;;;;;;14.80;7.33;;;;;;;8.90;68.39;101667.80;1736766;82;26201;-61
2021/04/23 11:20:29;;;;;;;18.87;10.75;;;;;;;8.93;68.80;101668.91;1764975;80;25511;-61
2021/04/23 11:23:00;;;;;;;11.03;6.50;;;;;;;8.93;68.48;101666.23;1735934;81;25680;-61
2021/04/23 11:25:29;;;;;;;8.78;5.03;;;;;;;8.91;68.39;101653.42;1749142;80;28524;-61
2021/04/23 11:28:08;;;;;;;11.08;5.35;;;;;;;8.86;68.33;101657.76;1752363;80;25599;-61
2021/04/23 11:31:04;;;;;;;9.90;5.22;;;;;;;8.83;68.38;101663.81;1752444;80;25530;-61
2021/04/23 11:33:53;;;;;;;13.75;6.87;;;;;;;8.80;68.39;101662.67;1752020;81;25669;-61
2021/04/23 11:36:28;;;;;;;15.18;8.98;;;;;;;8.73;68.76;101655.05;1752207;80;26093;-61
2021/04/23 11:39:06;;;;;;;15.40;8.80;;;;;;;8.71;69.09;101662.33;1752322;81;27527;-61
2021/04/23 11:41:35;;;;;;;21.33;9.08;;;;;;;8.74;69.12;101663.44;1741160;80;26107;-62
2021/04/23 11:44:40;;;;;;;11.57;6.95;;;;;;;8.70;69.23;101665.09;1782023;80;25736;-61